createdAt,value
2023-03-29T00:02:49.429Z,3.52
2023-03-29T00:05:57.745Z,3.58
2023-03-29T00:09:21.925Z,3.58
2023-03-29T00:12:27.183Z,3.59
2023-03-29T00:15:31.655Z,3.57
2023-03-29T00:18:38.649Z,3.64
2023-03-29T00:21:44.775Z,3.40
2023-03-29T00:24:57.724Z,3.56
2023-03-29T00:28:02.640Z,3.50
2023-03-29T00:31:09.357Z,3.57
2023-03-29T00:34:16.599Z,3.61
2023-03-29T00:37:27.217Z,3.67
2023-03-29T00:40:36.372Z,3.68
2023-03-29T00:43:56.057Z,3.77
2023-03-29T00:47:00.938Z,3.53
2023-03-29T00:50:14.690Z,3.66
2023-03-29T00:53:23.140Z,3.65
2023-03-29T00:56:37.629Z,3.62
2023-03-29T00:59:44.614Z,3.65
2023-03-29T01:02:54.981Z,3.57
2023-03-29T01:06:04.213Z,3.56
2023-03-29T01:09:13.225Z,3.53
2023-03-29T01:12:22.528Z,3.56
2023-03-29T01:15:30.815Z,3.54
2023-03-29T01:18:37.769Z,3.59
2023-03-29T01:21:49.647Z,3.57
2023-03-29T01:25:07.977Z,3.61
2023-03-29T01:28:20.816Z,3.55
2023-03-29T01:31:29.109Z,3.53
2023-03-29T01:34:40.593Z,3.50
2023-03-29T01:37:53.127Z,3.46
2023-03-29T01:40:58.939Z,3.38
2023-03-29T01:44:10.473Z,3.38
2023-03-29T01:47:25.455Z,3.32
2023-03-29T01:50:39.949Z,3.31
2023-03-29T01:53:50.918Z,3.26
2023-03-29T01:56:58.270Z,3.19
2023-03-29T02:00:11.322Z,3.23
2023-03-29T02:03:22.114Z,3.13
2023-03-29T02:06:29.736Z,3.16
2023-03-29T02:09:38.069Z,3.20
2023-03-29T02:12:42.788Z,3.10
2023-03-29T02:15:50.531Z,3.19
2023-03-29T02:18:58.236Z,3.14
2023-03-29T02:22:06.784Z,3.12
2023-03-29T02:25:13.945Z,3.06
2023-03-29T02:28:19.031Z,2.92
2023-03-29T02:31:29.815Z,2.93
2023-03-29T02:34:40.304Z,2.85
2023-03-29T02:37:49.676Z,2.79
2023-03-29T02:40:55.962Z,2.75
2023-03-29T02:44:05.206Z,2.70
2023-03-29T02:47:18.628Z,2.71
2023-03-29T02:50:25.035Z,2.64
2023-03-29T02:53:35.083Z,2.65
2023-03-29T02:56:48.508Z,2.75
2023-03-29T02:59:54.345Z,2.62
2023-03-29T03:03:02.107Z,2.57
2023-03-29T03:06:10.710Z,2.53
2023-03-29T03:09:15.756Z,2.52
2023-03-29T03:12:23.239Z,2.48
2023-03-29T03:15:28.316Z,2.43
2023-03-29T03:18:35.713Z,2.47
2023-03-29T03:21:40.300Z,2.32
2023-03-29T03:24:48.161Z,2.31
2023-03-29T03:27:55.590Z,2.33
2023-03-29T03:31:01.532Z,2.21
2023-03-29T03:34:26.797Z,2.21
2023-03-29T03:37:36.025Z,2.13
2023-03-29T03:40:44.460Z,2.12
2023-03-29T03:43:50.181Z,1.95
2023-03-29T03:46:55.253Z,1.92
2023-03-29T03:50:00.602Z,1.93
2023-03-29T03:53:05.723Z,1.92
2023-03-29T03:56:32.409Z,1.89
2023-03-29T03:59:49.261Z,1.88
2023-03-29T04:03:02.564Z,1.91
2023-03-29T04:06:10.402Z,1.96
2023-03-29T04:09:46.073Z,1.89
2023-03-29T04:13:04.765Z,1.86
2023-03-29T04:16:13.143Z,1.85
2023-03-29T04:19:21.988Z,1.78
2023-03-29T04:22:28.137Z,1.80
2023-03-29T04:25:32.643Z,1.74
2023-03-29T04:28:39.099Z,1.74
2023-03-29T04:31:58.038Z,1.68
2023-03-29T04:35:27.373Z,1.66
2023-03-29T04:38:36.326Z,1.67
2023-03-29T04:41:41.660Z,1.64
2023-03-29T04:44:57.659Z,1.72
2023-03-29T04:48:17.274Z,1.95
2023-03-29T04:51:24.830Z,2.20
2023-03-29T04:54:32.501Z,2.53
2023-03-29T04:57:51.536Z,2.78
2023-03-29T05:00:59.504Z,3.08
2023-03-29T05:04:12.982Z,3.47
2023-03-29T05:07:27.716Z,3.70
2023-03-29T05:10:33.596Z,3.96
2023-03-29T05:13:37.880Z,4.13
2023-03-29T05:16:42.882Z,4.32
2023-03-29T05:19:48.147Z,4.38
2023-03-29T05:23:03.597Z,4.39
2023-03-29T05:26:35.650Z,4.67
2023-03-29T05:29:41.421Z,4.90
2023-03-29T05:33:00.505Z,5.15
2023-03-29T05:36:09.535Z,5.46
2023-03-29T05:39:18.965Z,5.71
2023-03-29T05:42:28.550Z,6.01
2023-03-29T05:45:36.263Z,6.21
2023-03-29T05:49:03.621Z,6.46
2023-03-29T05:52:26.823Z,6.58
2023-03-29T05:55:31.164Z,6.72
2023-03-29T05:59:01.401Z,6.87
2023-03-29T06:02:07.016Z,6.89
2023-03-29T06:05:16.223Z,7.17
2023-03-29T06:08:34.225Z,7.35
2023-03-29T06:12:01.987Z,7.70
2023-03-29T06:15:16.731Z,8.16
2023-03-29T06:18:25.353Z,8.36
2023-03-29T06:21:29.512Z,8.61
2023-03-29T06:24:36.900Z,8.87
2023-03-29T06:28:52.200Z,9.42
2023-03-29T06:31:58.856Z,9.36
2023-03-29T06:36:38.740Z,9.39
2023-03-29T06:40:14.696Z,9.28
2023-03-29T06:43:21.302Z,9.24
2023-03-29T06:46:43.138Z,9.58
2023-03-29T06:49:59.707Z,9.98
2023-03-29T06:53:18.075Z,10.08
2023-03-29T07:00:45.942Z,11.30
2023-03-29T07:08:15.615Z,11.89
2023-03-29T07:11:36.576Z,11.72
2023-03-29T07:19:09.727Z,11.77
2023-03-29T07:27:06.041Z,11.65
2023-03-29T07:30:16.918Z,11.95
2023-03-29T07:33:25.884Z,12.78
2023-03-29T07:36:51.720Z,13.41
2023-03-29T07:39:59.804Z,14.09
2023-03-29T07:43:38.011Z,14.70
2023-03-29T07:46:47.589Z,14.88
2023-03-29T07:49:52.593Z,14.48
2023-03-29T07:53:38.740Z,13.93
2023-03-29T07:57:37.178Z,15.19
2023-03-29T08:09:17.218Z,13.63
2023-03-29T08:12:41.134Z,12.99
2023-03-29T08:15:53.737Z,12.49
2023-03-29T08:19:09.555Z,11.75
2023-03-29T08:22:54.291Z,11.12
2023-03-29T08:26:24.252Z,10.84
2023-03-29T08:29:29.481Z,10.51
2023-03-29T08:32:36.893Z,10.50
2023-03-29T08:35:46.865Z,10.13
2023-03-29T08:38:58.603Z,9.71
2023-03-29T08:42:21.260Z,9.63
2023-03-29T08:45:35.621Z,9.46
2023-03-29T08:48:46.848Z,9.49
2023-03-29T08:51:59.752Z,9.56
2023-03-29T08:55:09.555Z,9.60
2023-03-29T08:58:36.233Z,9.33
2023-03-29T09:01:46.783Z,9.15
2023-03-29T09:05:03.278Z,9.32
2023-03-29T09:08:25.026Z,9.36
2023-03-29T09:11:44.890Z,9.38
2023-03-29T09:15:12.314Z,9.34
2023-03-29T09:18:34.278Z,9.31
2023-03-29T09:21:47.950Z,9.45
2023-03-29T09:25:07.472Z,9.27
2023-03-29T09:28:20.499Z,9.35
2023-03-29T09:31:35.415Z,9.28
2023-03-29T09:34:46.258Z,9.29
2023-03-29T09:38:01.670Z,9.51
2023-03-29T09:41:20.320Z,9.31
2023-03-29T09:44:31.260Z,9.32
2023-03-29T09:47:47.286Z,9.45
2023-03-29T09:50:53.344Z,9.51
2023-03-29T09:54:01.217Z,9.62
2023-03-29T09:57:33.629Z,9.52
2023-03-29T10:00:49.301Z,9.46
2023-03-29T10:03:54.701Z,9.34
2023-03-29T10:07:01.567Z,9.17
2023-03-29T10:10:11.977Z,9.17
2023-03-29T10:13:24.590Z,9.30
2023-03-29T10:16:32.021Z,9.27
2023-03-29T10:19:40.132Z,9.27
2023-03-29T10:22:51.282Z,9.51
2023-03-29T10:25:58.015Z,9.68
2023-03-29T10:29:06.398Z,9.74
2023-03-29T10:32:20.108Z,9.70
2023-03-29T10:35:30.624Z,9.65
2023-03-29T10:38:37.750Z,9.56
2023-03-29T10:41:45.127Z,9.68
2023-03-29T10:44:55.724Z,9.49
2023-03-29T10:48:00.955Z,9.57
2023-03-29T10:51:07.795Z,9.74
2023-03-29T10:54:16.173Z,9.75
2023-03-29T10:57:35.621Z,9.95
2023-03-29T11:00:51.316Z,10.13
2023-03-29T11:04:11.520Z,10.05
2023-03-29T11:07:28.885Z,10.26
2023-03-29T11:10:44.969Z,9.97
2023-03-29T11:14:01.650Z,9.95
2023-03-29T11:17:20.786Z,10.07
2023-03-29T11:20:38.007Z,10.05
2023-03-29T11:23:51.437Z,10.25
2023-03-29T11:27:11.330Z,10.49
2023-03-29T11:30:27.368Z,10.84
2023-03-29T11:33:43.276Z,11.01
2023-03-29T11:36:54.221Z,11.09
2023-03-29T11:40:10.171Z,11.16
2023-03-29T11:43:20.696Z,11.31
2023-03-29T11:46:36.144Z,11.45
2023-03-29T11:49:49.334Z,11.29
2023-03-29T11:52:57.883Z,11.26
2023-03-29T11:56:11.090Z,11.10
2023-03-29T11:59:20.036Z,11.01
2023-03-29T12:02:36.896Z,11.11
2023-03-29T12:05:48.471Z,11.13
2023-03-29T12:08:58.843Z,11.01
2023-03-29T12:12:10.456Z,10.89
2023-03-29T12:15:20.585Z,10.79
2023-03-29T12:18:32.199Z,11.02
2023-03-29T12:21:38.996Z,10.92
2023-03-29T12:24:46.127Z,11.10
2023-03-29T12:28:07.900Z,11.24
2023-03-29T12:31:26.278Z,11.48
2023-03-29T12:34:54.911Z,11.66
2023-03-29T12:38:24.489Z,11.63
2023-03-29T12:41:51.963Z,11.75
2023-03-29T12:45:39.039Z,11.74
2023-03-29T12:48:57.438Z,11.66
2023-03-29T13:00:51.237Z,11.84
2023-03-29T13:04:16.403Z,11.89
2023-03-29T13:07:34.056Z,11.94
2023-03-29T13:10:43.613Z,11.94
2023-03-29T13:13:52.533Z,12.06
2023-03-29T13:17:18.382Z,12.11
2023-03-29T13:20:43.510Z,12.33
2023-03-29T13:24:08.936Z,11.87
2023-03-29T13:27:30.545Z,12.01
2023-03-29T13:30:47.641Z,12.05
2023-03-29T13:34:04.381Z,11.79
2023-03-29T13:37:34.718Z,11.98
2023-03-29T13:41:04.723Z,12.11
2023-03-29T13:44:35.335Z,12.21
2023-03-29T13:47:58.767Z,12.23
2023-03-29T13:51:28.457Z,12.30
2023-03-29T13:54:40.553Z,12.16
2023-03-29T13:58:07.344Z,12.03
2023-03-29T14:01:20.589Z,12.03
2023-03-29T14:04:36.442Z,12.10
2023-03-29T14:07:46.853Z,12.17
2023-03-29T14:10:54.669Z,11.91
2023-03-29T14:14:08.526Z,11.93
2023-03-29T14:17:20.552Z,11.88
2023-03-29T14:20:25.597Z,11.47
2023-03-29T14:23:34.010Z,11.58
2023-03-29T14:26:38.534Z,11.10
2023-03-29T14:29:47.734Z,11.35
2023-03-29T14:32:52.686Z,11.51
2023-03-29T14:35:57.456Z,11.56
2023-03-29T14:39:05.814Z,11.37
2023-03-29T14:42:20.835Z,11.36
2023-03-29T14:45:30.512Z,11.42
2023-03-29T14:48:39.271Z,11.45
2023-03-29T14:51:47.349Z,11.40
2023-03-29T14:55:10.803Z,11.44
2023-03-29T14:58:22.866Z,11.50
2023-03-29T15:01:30.781Z,11.50
2023-03-29T15:04:37.867Z,11.43
2023-03-29T15:07:45.049Z,11.51
2023-03-29T15:10:52.261Z,11.48
2023-03-29T15:14:03.907Z,11.45
2023-03-29T15:17:43.114Z,11.36
2023-03-29T15:20:56.678Z,11.25
2023-03-29T15:24:02.125Z,11.24
2023-03-29T15:27:14.802Z,11.40
2023-03-29T15:30:21.792Z,11.45
2023-03-29T15:33:34.743Z,11.53
2023-03-29T15:36:42.904Z,11.52
2023-03-29T15:39:48.573Z,11.54
2023-03-29T15:46:23.967Z,11.36
2023-03-29T15:49:38.364Z,11.58
2023-03-29T15:52:43.401Z,11.51
2023-03-29T15:55:50.788Z,11.56
2023-03-29T15:58:55.252Z,11.35
2023-03-29T16:02:01.381Z,11.38
2023-03-29T16:05:11.250Z,11.36
2023-03-29T16:08:15.993Z,11.25
2023-03-29T16:11:22.517Z,11.10
2023-03-29T16:14:37.673Z,11.23
2023-03-29T16:17:57.634Z,11.13
2023-03-29T16:21:23.530Z,11.17
2023-03-29T16:28:31.583Z,11.31
2023-03-29T16:35:53.811Z,11.39
2023-03-29T16:38:59.925Z,11.45
2023-03-29T16:42:15.245Z,11.47
2023-03-29T16:45:27.487Z,11.37
2023-03-29T16:48:32.217Z,11.26
2023-03-29T16:51:36.517Z,11.27
2023-03-29T16:54:44.164Z,11.31
2023-03-29T16:57:51.008Z,11.22
2023-03-29T17:00:58.152Z,11.25
2023-03-29T17:04:11.085Z,11.13
2023-03-29T17:07:15.211Z,11.13
2023-03-29T17:10:24.730Z,11.15
2023-03-29T17:13:32.029Z,11.12
2023-03-29T17:16:38.427Z,11.14
2023-03-29T17:19:44.268Z,11.09
2023-03-29T17:22:52.730Z,10.99
2023-03-29T17:26:01.627Z,11.04
2023-03-29T17:29:08.693Z,10.91
2023-03-29T17:32:13.344Z,10.91
2023-03-29T17:35:18.990Z,10.94
2023-03-29T17:38:27.177Z,10.81
2023-03-29T17:41:36.369Z,10.82
2023-03-29T17:44:41.541Z,10.71
2023-03-29T17:47:46.142Z,10.72
2023-03-29T17:50:50.936Z,10.67
2023-03-29T17:53:57.236Z,10.65
2023-03-29T17:57:04.741Z,10.59
2023-03-29T18:00:12.880Z,10.53
2023-03-29T18:03:19.528Z,10.41
2023-03-29T18:06:23.991Z,10.28
2023-03-29T18:09:30.631Z,10.19
2023-03-29T18:12:38.901Z,10.09
2023-03-29T18:15:46.541Z,10.04
2023-03-29T18:18:52.502Z,10.07
2023-03-29T18:22:00.138Z,10.03
2023-03-29T18:25:09.570Z,10.02
2023-03-29T18:28:16.410Z,10.02
2023-03-29T18:31:29.007Z,9.99
2023-03-29T18:34:35.048Z,9.92
2023-03-29T18:37:40.588Z,9.89
2023-03-29T18:40:46.253Z,9.84
2023-03-29T18:43:57.777Z,9.84
2023-03-29T18:47:05.234Z,9.83
2023-03-29T18:50:12.844Z,9.89
2023-03-29T18:53:29.023Z,9.68
2023-03-29T18:56:42.191Z,9.79
2023-03-29T19:00:12.827Z,9.89
2023-03-29T19:03:17.296Z,9.87
2023-03-29T19:06:22.014Z,9.88
2023-03-29T19:09:30.602Z,9.90
2023-03-29T19:12:37.401Z,9.89
2023-03-29T19:15:45.782Z,9.99
2023-03-29T19:18:51.929Z,10.01
2023-03-29T19:22:02.369Z,10.03
2023-03-29T19:25:14.047Z,9.97
2023-03-29T19:31:49.657Z,10.05
2023-03-29T19:35:10.972Z,9.85
2023-03-29T19:39:02.507Z,9.64
2023-03-29T19:42:09.744Z,9.44
2023-03-29T19:45:13.692Z,9.34
2023-03-29T19:48:23.938Z,9.27
2023-03-29T19:51:28.951Z,9.16
2023-03-29T19:54:33.024Z,9.11
2023-03-29T19:57:42.805Z,9.11
2023-03-29T20:00:47.241Z,9.10
2023-03-29T20:03:52.863Z,9.20
2023-03-29T20:07:02.165Z,9.14
2023-03-29T20:10:06.862Z,8.98
2023-03-29T20:13:11.579Z,8.97
2023-03-29T20:16:17.322Z,8.69
2023-03-29T20:19:36.724Z,8.92
2023-03-29T20:22:45.592Z,8.77
2023-03-29T20:25:50.955Z,8.78
2023-03-29T20:28:55.634Z,8.70
2023-03-29T20:32:00.230Z,8.87
2023-03-29T20:35:21.489Z,9.00
2023-03-29T20:38:27.916Z,8.97
2023-03-29T20:41:35.907Z,8.85
2023-03-29T20:44:40.420Z,8.57
2023-03-29T20:47:50.613Z,8.85
2023-03-29T20:51:04.701Z,8.96
2023-03-29T20:54:11.538Z,8.99
2023-03-29T20:57:18.102Z,9.10
2023-03-29T21:00:25.135Z,9.00
2023-03-29T21:03:29.674Z,9.11
2023-03-29T21:06:40.120Z,9.14
2023-03-29T21:09:48.480Z,9.13
2023-03-29T21:12:54.495Z,9.08
2023-03-29T21:15:58.816Z,9.15
2023-03-29T21:19:02.965Z,9.14
2023-03-29T21:22:09.080Z,9.06
2023-03-29T21:25:15.675Z,9.15
2023-03-29T21:28:22.545Z,9.18
2023-03-29T21:31:28.411Z,9.25
2023-03-29T21:34:32.429Z,9.29
2023-03-29T21:37:37.625Z,9.40
2023-03-29T21:40:41.746Z,9.46
2023-03-29T21:43:47.272Z,9.52
2023-03-29T21:46:56.126Z,9.55
2023-03-29T21:50:01.239Z,9.62
2023-03-29T21:53:08.781Z,9.65
2023-03-29T21:56:16.257Z,9.66
2023-03-29T21:59:20.745Z,9.65
2023-03-29T22:02:26.034Z,9.70
2023-03-29T22:05:30.833Z,9.67
2023-03-29T22:08:38.997Z,9.59
2023-03-29T22:11:46.129Z,9.52
2023-03-29T22:14:50.383Z,9.58
2023-03-29T22:17:57.878Z,9.55
2023-03-29T22:21:08.897Z,9.47
2023-03-29T22:24:14.918Z,9.30
2023-03-29T22:27:19.298Z,9.17
2023-03-29T22:30:23.800Z,9.12
2023-03-29T22:33:27.420Z,9.29
2023-03-29T22:36:33.250Z,9.21
2023-03-29T22:39:39.108Z,9.01
2023-03-29T22:42:43.334Z,9.01
2023-03-29T22:45:47.170Z,8.73
2023-03-29T22:48:53.392Z,8.77
2023-03-29T22:51:58.177Z,8.70
2023-03-29T22:55:03.619Z,8.71
2023-03-29T22:58:07.446Z,8.78
2023-03-29T23:01:12.117Z,8.83
2023-03-29T23:04:16.427Z,8.80
2023-03-29T23:07:21.471Z,8.81
2023-03-29T23:10:29.098Z,8.88
2023-03-29T23:13:35.493Z,8.90
2023-03-29T23:16:42.434Z,8.94
2023-03-29T23:19:46.769Z,9.04
2023-03-29T23:22:50.607Z,9.04
2023-03-29T23:25:58.002Z,9.04
2023-03-29T23:29:02.500Z,9.02
2023-03-29T23:32:06.977Z,8.98
2023-03-29T23:35:11.382Z,9.04
2023-03-29T23:38:15.556Z,9.06
2023-03-29T23:41:21.073Z,9.01
2023-03-29T23:44:27.896Z,8.84
2023-03-29T23:47:31.914Z,8.86
2023-03-29T23:50:36.046Z,8.81
2023-03-29T23:53:40.560Z,8.82
2023-03-29T23:56:46.898Z,8.73
2023-03-29T23:59:52.856Z,8.77
